Main page
METAR-TAF:

METAR-TAF

Airports :

Norman Manley International Airport

Kingston, Jamaica

latitude: 17-56N, longitude: 076-47W, elevation: 3 m

Current weather observation

The report was made 30 minutes ago, at 02:00 UTC
Wind 7 kt from the North/Northwest
Temperature 28°C
Humidity 79%
Pressure 1016 hPa
Visibility 10 km or more
Few clouds at a height of 2200 ft

METAR: MKJP 070200Z 34007KT 9999 FEW022 28/24 Q1016

Time: 21:30 (02:30 UTC)

Forecast

The report was made 3 hours and 15 minutes ago, at 23:15 UTC
Forecast valid from 07 at 00 UTC to 07 at 24 UTC
Wind 5 kt from the North
Visibility 10 km or more
Few clouds at a height of 2200 ft
Becoming
from 07 at 13 UTC to 07 at 15 UTC
Wind 10 kt from the South
Temporary
from 07 at 20 UTC to 07 at 24 UTC
Scattered clouds at a height of 2000 ft
Few clouds at a height of 2200 ft, Cumulonimbus.

TAF: MKJP 062315Z 0700/0724 35005KT 9999 FEW022 BECMG 0713/0715 19010KT TEMPO 0720/0724 SCT020 FEW022CB

Weather observations and forecasts of more than 4000 airports (METAR and TAF reports).

The available stations are represented by yellow and red dots on the map.

Hover mouse over dot to see the name of the station.

Then click to see weather observations and forecasts.

To change the map : click on the green buttons with a black cross to zoom in, on the green button with a dash to zoom out, or on the green arrows for adjacent maps.


METAR-TAF: